Time;durP1;ratioP1;P1;durP2;ratioP2;P2;SDS_P1;SDS_P2;PMS_P1;PMS_P2;Temp;Humidity;BMP_temperature;BMP_pressure;BME280_temperature;BME280_humidity;BME280_pressure;Samples;Min_cycle;Max_cycle;Signal;HPM_P1;HPM_P2
2021/04/18 00:00:28;;;;;;;12.02;4.93;;;;;;;3.04;100.00;102395.69;3587829;39;20052;-64
2021/04/18 00:02:54;;;;;;;13.43;4.97;;;;;;;3.10;100.00;102390.19;3588126;40;20504;-63
2021/04/18 00:05:21;;;;;;;10.82;5.05;;;;;;;3.09;100.00;102399.97;3586289;39;20070;-65
2021/04/18 00:07:47;;;;;;;12.32;5.43;;;;;;;3.00;100.00;102397.56;3586069;39;20063;-65
2021/04/18 00:10:15;;;;;;;10.23;5.13;;;;;;;3.04;100.00;102385.06;3585979;39;20075;-63
2021/04/18 00:12:41;;;;;;;13.25;5.18;;;;;;;3.00;100.00;102381.63;3588032;40;20080;-63
2021/04/18 00:15:10;;;;;;;12.10;4.85;;;;;;;2.85;100.00;102387.44;3587481;40;20134;-65
2021/04/18 00:17:37;;;;;;;14.82;6.75;;;;;;;2.86;100.00;102379.41;3586836;39;20060;-63
2021/04/18 00:20:06;;;;;;;9.82;5.38;;;;;;;2.79;100.00;102378.72;3585965;39;20059;-64
2021/04/18 00:22:32;;;;;;;18.83;6.75;;;;;;;2.71;100.00;102374.56;3587270;39;20059;-63
2021/04/18 00:24:58;;;;;;;13.77;6.95;;;;;;;2.76;100.00;102381.47;3588498;40;20056;-63
2021/04/18 00:27:25;;;;;;;19.23;8.32;;;;;;;2.65;100.00;102378.31;3584711;40;20059;-64
2021/04/18 00:29:51;;;;;;;14.40;8.43;;;;;;;2.57;100.00;102377.66;3584977;39;20799;-63
2021/04/18 00:32:16;;;;;;;18.15;8.30;;;;;;;2.50;100.00;102378.75;3586432;39;20036;-64
2021/04/18 00:34:42;;;;;;;16.38;7.57;;;;;;;2.47;100.00;102373.53;3588789;39;20057;-65
2021/04/18 00:37:08;;;;;;;18.25;8.75;;;;;;;2.48;100.00;102369.97;3586210;39;20033;-64
2021/04/18 00:39:35;;;;;;;16.25;9.27;;;;;;;2.38;100.00;102367.56;3587204;39;20063;-63
2021/04/18 00:42:01;;;;;;;17.92;9.32;;;;;;;2.42;100.00;102365.72;3587580;40;20161;-64
2021/04/18 00:44:29;;;;;;;15.82;8.60;;;;;;;2.39;100.00;102353.38;3585350;40;20085;-63
2021/04/18 00:46:55;;;;;;;16.92;8.55;;;;;;;2.37;100.00;102360.53;3586382;39;20382;-63
2021/04/18 00:49:21;;;;;;;17.05;8.65;;;;;;;2.26;100.00;102357.31;3586958;39;20103;-64
2021/04/18 00:51:48;;;;;;;14.57;8.07;;;;;;;2.26;100.00;102355.53;3587978;40;20429;-64
2021/04/18 00:54:13;;;;;;;13.32;8.00;;;;;;;2.25;100.00;102355.56;3586908;39;20063;-63
2021/04/18 00:56:39;;;;;;;16.38;9.18;;;;;;;2.26;100.00;102344.03;3588641;39;20044;-64
2021/04/18 00:59:05;;;;;;;14.25;8.55;;;;;;;2.20;100.00;102342.44;3586474;39;20036;-64
2021/04/18 01:01:33;;;;;;;16.38;9.30;;;;;;;2.11;100.00;102345.38;3586038;40;20384;-65
2021/04/18 01:03:59;;;;;;;20.15;9.10;;;;;;;2.13;100.00;102350.63;3585779;40;20069;-65
2021/04/18 01:06:25;;;;;;;17.35;8.75;;;;;;;2.05;100.00;102346.41;3587453;39;20411;-65
2021/04/18 01:08:51;;;;;;;18.30;9.25;;;;;;;1.99;100.00;102343.94;3587431;39;20056;-63
2021/04/18 01:11:17;;;;;;;20.55;9.63;;;;;;;1.87;100.00;102336.31;3586100;39;20079;-63
2021/04/18 01:13:43;;;;;;;17.50;9.30;;;;;;;1.83;100.00;102335.53;3586169;40;20103;-62
2021/04/18 01:16:09;;;;;;;19.73;10.02;;;;;;;1.86;100.00;102334.59;3586086;40;20048;-64
2021/04/18 01:18:36;;;;;;;17.38;8.20;;;;;;;1.88;100.00;102322.97;3587354;39;20060;-65
2021/04/18 01:21:07;;;;;;;17.33;8.35;;;;;;;1.86;100.00;102324.81;3588175;39;20048;-64
2021/04/18 01:23:33;;;;;;;16.95;8.60;;;;;;;1.95;100.00;102322.84;3581238;40;20056;-64
2021/04/18 01:26:00;;;;;;;16.73;9.05;;;;;;;1.74;100.00;102315.44;3586139;40;20159;-65
2021/04/18 01:28:26;;;;;;;16.80;9.35;;;;;;;1.68;100.00;102325.31;3591740;40;20062;-64
2021/04/18 01:30:52;;;;;;;17.83;9.07;;;;;;;1.67;100.00;102324.47;3590806;40;20079;-64
2021/04/18 01:33:19;;;;;;;18.02;9.20;;;;;;;1.65;100.00;102334.28;3591680;40;20074;-64
2021/04/18 01:35:47;;;;;;;18.27;10.00;;;;;;;1.67;100.00;102335.09;3591278;40;20071;-64
2021/04/18 01:38:15;;;;;;;20.20;10.27;;;;;;;1.60;100.00;102338.81;3591345;40;20048;-63
2021/04/18 01:40:42;;;;;;;20.55;10.88;;;;;;;1.46;100.00;102335.66;3591894;40;20045;-62
2021/04/18 01:43:12;;;;;;;20.27;9.23;;;;;;;1.48;100.00;102339.16;3591359;40;20044;-64
2021/04/18 01:45:38;;;;;;;21.42;10.18;;;;;;;1.43;100.00;102336.63;3592038;39;20044;-64
2021/04/18 01:48:06;;;;;;;19.70;10.00;;;;;;;1.53;100.00;102334.59;3592255;40;20052;-64
2021/04/18 01:50:32;;;;;;;21.77;9.35;;;;;;;1.44;100.00;102332.19;3591626;40;20075;-64
2021/04/18 01:52:59;;;;;;;18.88;9.57;;;;;;;1.38;100.00;102333.22;3591518;39;20048;-64
2021/04/18 01:55:25;;;;;;;19.10;9.52;;;;;;;1.40;100.00;102337.56;3590666;39;20051;-64
2021/04/18 01:57:51;;;;;;;19.27;9.18;;;;;;;1.26;100.00;102331.75;3591573;40;20110;-65
2021/04/18 02:00:18;;;;;;;18.90;8.63;;;;;;;1.17;100.00;102329.34;3591757;40;20056;-62
2021/04/18 02:02:44;;;;;;;18.85;9.43;;;;;;;1.17;100.00;102326.69;3593129;39;20169;-63
2021/04/18 02:05:12;;;;;;;16.60;9.20;;;;;;;1.22;100.00;102327.44;3591944;39;20048;-64
2021/04/18 02:07:40;;;;;;;17.98;8.55;;;;;;;1.24;100.00;102336.25;3593007;40;20036;-64
2021/04/18 02:10:07;;;;;;;16.10;7.82;;;;;;;1.04;100.00;102340.25;3591842;39;20048;-64
2021/04/18 02:12:34;;;;;;;17.73;8.93;;;;;;;0.99;100.00;102331.56;3591134;39;20040;-65
2021/04/18 02:15:00;;;;;;;17.63;8.40;;;;;;;0.96;100.00;102325.47;3593210;39;20048;-64
2021/04/18 02:17:26;;;;;;;16.80;8.60;;;;;;;0.96;100.00;102325.47;3590933;39;20156;-64
2021/04/18 02:19:52;;;;;;;18.75;8.63;;;;;;;1.01;100.00;102328.84;3591771;39;20052;-63
2021/04/18 02:22:18;;;;;;;17.77;8.05;;;;;;;0.87;100.00;102326.56;3590437;39;20047;-63
2021/04/18 02:24:44;;;;;;;19.95;8.25;;;;;;;0.84;100.00;102331.91;3586427;39;20060;-64
2021/04/18 02:27:10;;;;;;;14.38;7.78;;;;;;;0.84;100.00;102334.56;3586836;39;20036;-64
2021/04/18 02:29:37;;;;;;;16.50;7.88;;;;;;;0.88;100.00;102338.88;3585273;39;20395;-64
2021/04/18 02:32:03;;;;;;;21.50;7.30;;;;;;;1.03;100.00;102337.63;3586712;39;20044;-64
2021/04/18 02:34:29;;;;;;;15.63;7.28;;;;;;;1.01;100.00;102340.31;3588809;39;20044;-65
2021/04/18 02:36:55;;;;;;;14.20;6.88;;;;;;;0.91;100.00;102341.47;3591878;39;20429;-64
2021/04/18 02:39:21;;;;;;;17.17;7.28;;;;;;;0.91;100.00;102343.25;3592551;39;20059;-65
2021/04/18 02:41:47;;;;;;;19.13;7.00;;;;;;;0.92;100.00;102340.56;3592469;39;20072;-63
2021/04/18 02:46:51;;;;;;;16.95;7.18;;;;;;;1.03;100.00;102333.22;3602668;23;20072;-64
2021/04/18 02:49:17;;;;;;;14.93;7.28;;;;;;;0.96;100.00;102338.72;3569961;40;20053;-65
2021/04/18 02:51:43;;;;;;;14.25;7.55;;;;;;;0.81;100.00;102339.94;3572654;40;20038;-64
2021/04/18 02:54:10;;;;;;;17.58;7.40;;;;;;;0.68;100.00;102337.59;3570440;40;20056;-64
2021/04/18 02:56:36;;;;;;;13.77;7.50;;;;;;;0.74;100.00;102335.69;3572448;40;20061;-64
2021/04/18 02:59:02;;;;;;;18.45;7.97;;;;;;;0.78;100.00;102338.25;3571172;40;20045;-64
2021/04/18 03:01:28;;;;;;;16.25;7.55;;;;;;;0.77;100.00;102335.63;3572527;40;20051;-65
2021/04/18 03:03:55;;;;;;;14.27;7.68;;;;;;;0.73;100.00;102333.97;3572177;40;20045;-64
2021/04/18 03:06:21;;;;;;;15.82;7.85;;;;;;;0.52;100.00;102336.22;3566705;40;20041;-64
2021/04/18 03:08:47;;;;;;;19.20;8.20;;;;;;;0.45;100.00;102335.47;3572842;40;20037;-65
2021/04/18 03:11:13;;;;;;;13.73;6.63;;;;;;;0.41;100.00;102333.78;3571605;40;20045;-64
2021/04/18 03:13:40;;;;;;;21.25;7.40;;;;;;;0.34;100.00;102326.91;3564729;40;20041;-64
2021/04/18 03:16:06;;;;;;;14.45;7.38;;;;;;;0.36;100.00;102330.38;3561221;40;20054;-64
2021/04/18 03:18:32;;;;;;;18.10;7.20;;;;;;;0.43;100.00;102325.81;3561711;40;20426;-64
2021/04/18 03:20:59;;;;;;;18.48;7.90;;;;;;;0.36;100.00;102326.88;3570436;40;20041;-64
2021/04/18 03:23:25;;;;;;;17.38;6.95;;;;;;;0.34;100.00;102322.47;3572329;40;20060;-63
2021/04/18 03:25:51;;;;;;;14.65;6.95;;;;;;;0.29;100.00;102319.03;3572716;40;20072;-64
2021/04/18 03:28:17;;;;;;;17.13;7.78;;;;;;;0.18;100.00;102318.41;3571124;40;20041;-63
2021/04/18 03:30:43;;;;;;;14.90;7.22;;;;;;;0.24;100.00;102312.13;3571914;40;20048;-64
2021/04/18 03:33:09;;;;;;;18.73;6.68;;;;;;;0.26;100.00;102315.59;3572322;40;20043;-63
2021/04/18 03:35:35;;;;;;;16.55;7.05;;;;;;;0.33;100.00;102309.25;3572121;40;20467;-62
2021/04/18 03:38:03;;;;;;;15.38;7.00;;;;;;;0.39;100.00;102313.56;3572711;40;20052;-64
2021/04/18 03:40:29;;;;;;;14.23;6.72;;;;;;;0.38;100.00;102302.06;3570791;40;20054;-64
2021/04/18 03:42:56;;;;;;;12.30;6.60;;;;;;;0.28;100.00;102308.47;3572081;40;20076;-63
2021/04/18 03:45:22;;;;;;;15.85;7.53;;;;;;;0.13;100.00;102307.94;3571416;40;20065;-62
2021/04/18 03:47:48;;;;;;;15.15;7.38;;;;;;;0.07;100.00;102308.03;3571023;40;20056;-64
2021/04/18 03:50:14;;;;;;;17.02;7.15;;;;;;;0.05;100.00;102312.50;3568594;40;20287;-64
2021/04/18 03:52:40;;;;;;;19.30;7.93;;;;;;;-0.06;100.00;102315.38;3571708;40;20398;-63
2021/04/18 03:55:12;;;;;;;22.08;7.85;;;;;;;-0.16;100.00;102311.19;3572080;40;20053;-63
2021/04/18 03:57:38;;;;;;;24.20;7.97;;;;;;;-0.11;100.00;102309.31;3569733;40;20049;-64
2021/04/18 04:00:06;;;;;;;20.90;7.88;;;;;;;-0.14;100.00;102311.16;3571979;40;20046;-63
2021/04/18 04:02:32;;;;;;;17.77;8.25;;;;;;;-0.19;100.00;102314.75;3571195;40;20235;-62
2021/04/18 04:04:58;;;;;;;21.75;8.27;;;;;;;-0.21;100.00;102307.75;3571395;40;20048;-62
2021/04/18 04:07:24;;;;;;;21.23;8.32;;;;;;;-0.24;100.00;102307.81;3572010;40;20042;-63
2021/04/18 04:09:50;;;;;;;24.05;8.38;;;;;;;-0.31;100.00;102319.41;3571182;40;20053;-64
2021/04/18 04:12:17;;;;;;;19.65;8.07;;;;;;;-0.36;100.00;102312.44;3571974;40;20438;-63
2021/04/18 04:14:43;;;;;;;23.27;8.43;;;;;;;-0.40;100.00;102312.53;3570792;40;20045;-64
2021/04/18 04:17:09;;;;;;;18.35;8.20;;;;;;;-0.36;100.00;102309.78;3571925;40;20052;-63
2021/04/18 04:19:35;;;;;;;26.77;8.32;;;;;;;-0.33;100.00;102314.16;3571335;40;20053;-62
2021/04/18 04:22:01;;;;;;;31.90;9.60;;;;;;;-0.27;100.00;102318.47;3571230;40;20607;-63
2021/04/18 04:24:27;;;;;;;30.40;10.20;;;;;;;-0.24;100.00;102313.09;3571346;40;20319;-64
2021/04/18 04:26:53;;;;;;;35.60;10.85;;;;;;;-0.30;100.00;102318.53;3572327;40;20044;-63
2021/04/18 04:29:20;;;;;;;23.92;11.10;;;;;;;-0.25;100.00;102319.28;3571434;40;20053;-63
2021/04/18 04:31:46;;;;;;;32.58;12.32;;;;;;;-0.28;100.00;102316.69;3570870;40;20036;-63
2021/04/18 04:34:12;;;;;;;35.10;12.43;;;;;;;-0.27;100.00;102323.75;3569523;40;20056;-65
2021/04/18 04:36:38;;;;;;;41.83;14.05;;;;;;;-0.34;100.00;102322.97;3571250;40;20134;-64
2021/04/18 04:39:06;;;;;;;40.63;14.25;;;;;;;-0.39;100.00;102330.16;3571556;40;20065;-64
2021/04/18 04:41:32;;;;;;;42.92;15.88;;;;;;;-0.39;100.00;102325.72;3571501;40;20048;-66
2021/04/18 04:43:57;;;;;;;49.00;15.73;;;;;;;-0.37;100.00;102323.94;3567774;40;20049;-62
2021/04/18 04:46:26;;;;;;;42.78;16.15;;;;;;;-0.33;100.00;102324.75;3570959;40;20044;-61
2021/04/18 04:48:52;;;;;;;38.53;16.40;;;;;;;-0.34;100.00;102325.63;3572099;40;20036;-62
2021/04/18 04:51:18;;;;;;;35.85;15.18;;;;;;;-0.27;100.00;102324.59;3571835;40;20041;-62
2021/04/18 04:53:44;;;;;;;41.40;15.40;;;;;;;-0.26;100.00;102331.66;3571701;40;20069;-64
2021/04/18 04:56:10;;;;;;;40.53;15.60;;;;;;;-0.12;100.00;102327.84;3571281;40;20056;-63
2021/04/18 04:58:36;;;;;;;35.03;15.25;;;;;;;0.08;100.00;102315.09;3571648;40;20150;-63
2021/04/18 05:01:02;;;;;;;36.03;16.38;;;;;;;0.13;100.00;102323.81;3570685;40;20045;-62
2021/04/18 05:03:28;;;;;;;32.60;14.38;;;;;;;0.17;100.00;102325.47;3571617;40;20067;-64
2021/04/18 05:05:55;;;;;;;30.77;14.30;;;;;;;0.33;100.00;102326.00;3571174;40;20068;-63
2021/04/18 05:08:21;;;;;;;29.77;14.40;;;;;;;0.45;100.00;102324.00;3570900;40;20058;-64
2021/04/18 05:10:47;;;;;;;30.50;13.80;;;;;;;0.49;100.00;102317.72;3571369;40;20049;-63
2021/04/18 05:13:13;;;;;;;29.20;14.88;;;;;;;0.46;100.00;102320.47;3569964;40;20075;-62
2021/04/18 05:15:40;;;;;;;68.30;15.55;;;;;;;0.45;100.00;102316.06;3571243;40;20032;-62
2021/04/18 05:18:06;;;;;;;52.78;16.95;;;;;;;0.53;100.00;102319.41;3570378;40;20045;-64
2021/04/18 05:20:33;;;;;;;88.60;18.05;;;;;;;0.58;100.00;102320.16;3571261;40;20050;-63
2021/04/18 05:22:59;;;;;;;100.35;18.92;;;;;;;0.72;100.00;102321.63;3572695;40;20053;-63
2021/04/18 05:25:25;;;;;;;110.15;20.35;;;;;;;0.71;100.00;102318.09;3572361;40;20055;-63
2021/04/18 05:27:51;;;;;;;53.00;17.88;;;;;;;0.84;100.00;102321.31;3573285;40;20596;-65
2021/04/18 05:30:18;;;;;;;97.35;18.77;;;;;;;0.84;100.00;102322.19;3572538;40;20041;-65
2021/04/18 05:32:44;;;;;;;158.40;18.80;;;;;;;0.96;100.00;102331.63;3572796;40;20079;-64
2021/04/18 05:35:11;;;;;;;98.55;17.52;;;;;;;0.98;100.00;102323.63;3572042;40;20090;-65
2021/04/18 05:37:38;;;;;;;143.45;19.13;;;;;;;1.09;100.00;102318.06;3572170;40;20055;-63
2021/04/18 05:40:05;;;;;;;149.35;20.45;;;;;;;1.02;100.00;102326.16;3572054;40;20061;-64
2021/04/18 05:42:31;;;;;;;108.03;18.30;;;;;;;1.03;100.00;102333.22;3572604;40;20059;-64
2021/04/18 05:44:57;;;;;;;101.47;18.85;;;;;;;1.15;100.00;102328.50;3572621;40;20041;-64
2021/04/18 05:47:23;;;;;;;102.07;19.60;;;;;;;1.18;100.00;102323.16;3571686;40;20045;-65
2021/04/18 05:49:49;;;;;;;130.02;19.85;;;;;;;1.30;100.00;102330.78;3619260;23;20069;-63
2021/04/18 05:54:46;;;;;;;46.22;19.27;;;;;;;1.42;100.00;102328.72;3614192;23;20401;-62
2021/04/18 05:57:12;;;;;;;126.57;20.95;;;;;;;1.56;100.00;102330.09;3581917;40;20117;-63
2021/04/18 05:59:38;;;;;;;46.35;17.15;;;;;;;1.64;100.00;102329.00;3583048;40;20057;-65
2021/04/18 06:02:04;;;;;;;95.30;20.13;;;;;;;1.68;100.00;102326.22;3581059;40;20039;-64
2021/04/18 06:04:30;;;;;;;160.90;21.77;;;;;;;1.75;100.00;102332.22;3581742;40;20052;-63
2021/04/18 06:06:56;;;;;;;71.03;18.58;;;;;;;2.05;100.00;102333.13;3582848;40;20056;-66
2021/04/18 06:09:22;;;;;;;110.32;19.00;;;;;;;2.32;100.00;102327.06;3581696;40;20106;-63
2021/04/18 06:11:49;;;;;;;60.63;18.10;;;;;;;2.38;100.00;102327.72;3581668;40;20422;-64
2021/04/18 06:14:15;;;;;;;58.80;17.02;;;;;;;2.58;100.00;102335.09;3582085;40;20125;-63
2021/04/18 06:16:41;;;;;;;106.60;17.35;;;;;;;2.86;100.00;102343.97;3582071;40;20052;-64
2021/04/18 06:19:07;;;;;;;42.58;17.17;;;;;;;3.03;100.00;102346.94;3581668;40;20057;-64
2021/04/18 06:21:33;;;;;;;77.15;16.52;;;;;;;3.08;100.00;102346.81;3582204;40;20049;-65
2021/04/18 06:23:59;;;;;;;42.90;14.40;;;;;;;3.31;100.00;102346.91;3581675;40;20327;-64
2021/04/18 06:26:25;;;;;;;49.92;14.38;;;;;;;3.49;100.00;102345.38;3581725;40;20221;-65
2021/04/18 06:28:52;;;;;;;60.78;15.40;;;;;;;3.62;100.00;102336.94;3581952;40;20036;-64
2021/04/18 06:31:18;;;;;;;118.78;17.58;;;;;;;3.61;100.00;102338.75;3579614;40;20422;-66
2021/04/18 06:33:44;;;;;;;119.95;19.38;;;;;;;3.42;100.00;102346.53;3582446;40;20064;-65
2021/04/18 06:36:10;;;;;;;38.72;16.20;;;;;;;3.51;100.00;102348.84;3580887;40;20165;-63
2021/04/18 06:38:36;;;;;;;35.38;15.10;;;;;;;3.73;100.00;102340.13;3582204;40;20069;-63
2021/04/18 06:41:02;;;;;;;38.25;13.10;;;;;;;3.90;100.00;102336.84;3581795;40;20080;-64
2021/04/18 06:43:29;;;;;;;22.08;12.00;;;;;;;3.97;100.00;102326.81;3580925;40;20059;-63
2021/04/18 06:45:56;;;;;;;42.10;13.48;;;;;;;4.12;100.00;102322.69;3581851;40;20060;-65
2021/04/18 06:48:22;;;;;;;33.58;12.27;;;;;;;4.11;100.00;102316.50;3580827;40;20071;-64
2021/04/18 06:53:18;;;;;;;21.33;10.68;;;;;;;4.19;100.00;102308.22;3602778;23;20423;-66
2021/04/18 06:55:44;;;;;;;82.43;15.45;;;;;;;4.24;100.00;102308.03;3561877;40;20050;-64
2021/04/18 06:58:11;;;;;;;32.35;12.95;;;;;;;4.50;100.00;102317.69;3560275;40;20336;-64
2021/04/18 07:00:37;;;;;;;36.78;12.48;;;;;;;4.83;100.00;102310.13;3561938;40;20057;-64
2021/04/18 07:03:12;;;;;;;21.45;10.77;;;;;;;4.99;100.00;102314.81;3561518;40;20110;-65
2021/04/18 07:05:46;;;;;;;53.67;11.85;;;;;;;4.95;100.00;102314.09;3562750;40;20031;-64
2021/04/18 07:08:23;;;;;;;51.13;12.98;;;;;;;4.97;100.00;102322.03;3560374;40;20098;-63
2021/04/18 07:10:50;;;;;;;18.88;10.65;;;;;;;5.24;100.00;102326.22;3562239;40;20050;-65
2021/04/18 07:13:19;;;;;;;14.43;9.80;;;;;;;5.46;100.00;102335.94;3561621;40;20065;-63
2021/04/18 07:15:46;;;;;;;23.48;10.35;;;;;;;5.55;100.00;102342.69;3562021;40;20041;-63
2021/04/18 07:18:34;;;;;;;15.85;9.75;;;;;;;5.92;100.00;102338.41;3560879;40;20048;-64
2021/04/18 07:21:01;;;;;;;20.75;10.15;;;;;;;6.20;100.00;102347.84;3561846;40;20033;-63
2021/04/18 07:23:29;;;;;;;17.85;8.43;;;;;;;6.32;100.00;102345.47;3562649;40;20368;-63
2021/04/18 07:25:56;;;;;;;13.63;8.68;;;;;;;5.99;100.00;102349.69;3561620;40;20062;-64
2021/04/18 07:28:23;;;;;;;14.15;8.85;;;;;;;6.02;100.00;102344.22;3556925;40;20073;-65
2021/04/18 07:30:50;;;;;;;22.35;8.85;;;;;;;5.82;100.00;102345.97;3562142;40;20053;-62
2021/04/18 07:33:18;;;;;;;14.60;8.25;;;;;;;5.75;100.00;102348.03;3561319;40;20081;-63
2021/04/18 07:35:44;;;;;;;13.57;8.43;;;;;;;5.73;100.00;102360.59;3561500;40;20404;-64
2021/04/18 07:38:17;;;;;;;11.68;8.68;;;;;;;6.03;100.00;102356.66;3558768;40;20057;-64
2021/04/18 07:40:43;;;;;;;12.30;8.10;;;;;;;5.96;100.00;102362.25;3561731;40;20073;-65
2021/04/18 07:43:10;;;;;;;14.20;8.05;;;;;;;6.03;100.00;102367.34;3560531;40;20037;-63
2021/04/18 07:45:38;;;;;;;11.10;7.65;;;;;;;5.78;100.00;102365.72;3561821;40;20046;-64
2021/04/18 07:48:09;;;;;;;14.05;7.88;;;;;;;5.89;100.00;102354.56;3560836;40;20045;-64
2021/04/18 07:50:35;;;;;;;16.30;8.88;;;;;;;5.78;100.00;102353.22;3557724;40;20058;-65
2021/04/18 07:53:02;;;;;;;12.90;8.98;;;;;;;6.05;100.00;102344.97;3560365;40;20049;-65
2021/04/18 07:55:31;;;;;;;11.75;7.88;;;;;;;6.58;100.00;102346.06;3551121;40;20086;-64
2021/04/18 07:57:57;;;;;;;13.50;9.27;;;;;;;6.48;100.00;102342.94;3551325;40;20116;-64
2021/04/18 08:00:24;;;;;;;13.50;8.80;;;;;;;6.70;100.00;102346.38;3549992;40;20091;-66
2021/04/18 08:02:51;;;;;;;12.80;8.05;;;;;;;7.15;100.00;102337.88;3550629;40;20057;-64
2021/04/18 08:05:19;;;;;;;11.70;8.25;;;;;;;7.04;100.00;102336.69;3551093;40;20061;-65
2021/04/18 08:08:01;;;;;;;11.93;8.27;;;;;;;6.98;100.00;102335.22;3551591;40;20061;-65
2021/04/18 08:10:31;;;;;;;12.60;8.52;;;;;;;7.43;100.00;102325.78;3551904;40;20409;-65
2021/04/18 08:13:01;;;;;;;;;;;;;;;7.15;100.00;102331.69;3549785;40;20091;-65
2021/04/18 08:15:27;;;;;;;14.63;8.70;;;;;;;7.77;100.00;102324.00;3549954;40;19969;-65
2021/04/18 08:18:03;;;;;;;13.63;8.13;;;;;;;8.22;100.00;102324.28;3552356;40;20050;-65
2021/04/18 08:20:32;;;;;;;11.60;7.72;;;;;;;8.48;100.00;102324.66;3550970;40;20057;-66
2021/04/18 08:23:04;;;;;;;12.00;7.55;;;;;;;8.33;100.00;102321.88;3551513;40;20064;-66
2021/04/18 08:25:30;;;;;;;14.00;8.13;;;;;;;8.14;100.00;102322.03;3551632;40;20045;-64
2021/04/18 08:28:04;;;;;;;14.23;8.02;;;;;;;8.28;100.00;102328.44;3547435;40;20090;-65
2021/04/18 08:30:31;;;;;;;12.23;8.00;;;;;;;8.45;100.00;102322.16;3550922;40;20057;-65
2021/04/18 08:32:57;;;;;;;14.32;8.48;;;;;;;8.49;100.00;102315.66;3550878;40;20413;-64
2021/04/18 08:35:24;;;;;;;15.75;7.88;;;;;;;8.30;100.00;102311.28;3632138;22;20069;-66
2021/04/18 08:38:19;;;;;;;14.27;8.23;;;;;;;8.12;100.00;102320.38;3561348;40;20056;-66
2021/04/18 08:40:45;;;;;;;15.93;8.65;;;;;;;8.16;100.00;102324.63;3560533;40;20049;-64
2021/04/18 08:43:19;;;;;;;15.95;8.27;;;;;;;8.31;100.00;102321.06;3561973;40;20144;-64
2021/04/18 08:45:48;;;;;;;14.63;8.10;;;;;;;8.55;100.00;102320.69;3560646;40;20042;-66
2021/04/18 08:48:14;;;;;;;14.30;8.73;;;;;;;8.47;100.00;102320.28;3561522;40;20397;-66
2021/04/18 08:50:52;;;;;;;17.73;8.93;;;;;;;8.83;100.00;102327.16;3560668;40;20138;-66
2021/04/18 08:53:18;;;;;;;14.63;8.43;;;;;;;9.45;100.00;102327.97;3561022;40;20056;-64
2021/04/18 08:55:52;;;;;;;13.75;8.25;;;;;;;9.65;100.00;102312.44;3562651;40;20376;-65
2021/04/18 08:58:32;;;;;;;14.23;8.07;;;;;;;9.75;100.00;102318.13;3562033;40;20041;-64
2021/04/18 09:01:06;;;;;;;13.57;8.48;;;;;;;9.14;100.00;102322.69;3561411;40;20055;-64
2021/04/18 09:03:33;;;;;;;14.50;8.57;;;;;;;9.36;100.00;102316.88;3562525;40;20053;-66
2021/04/18 09:06:03;;;;;;;14.75;8.63;;;;;;;9.97;100.00;102312.25;3563682;40;20055;-66
2021/04/18 09:08:29;;;;;;;17.27;8.88;;;;;;;9.94;100.00;102320.53;3562298;40;20058;-67
2021/04/18 09:11:03;;;;;;;17.58;9.23;;;;;;;9.72;100.00;102315.63;3562970;40;20143;-64
2021/04/18 09:13:29;;;;;;;15.77;7.80;;;;;;;9.44;100.00;102323.53;3561674;40;20061;-65
2021/04/18 09:15:56;;;;;;;14.77;7.95;;;;;;;9.51;100.00;102315.09;3562462;40;20088;-66
2021/04/18 09:18:23;;;;;;;17.65;8.50;;;;;;;9.88;100.00;102318.19;3563715;40;20111;-65
2021/04/18 09:21:13;;;;;;;10.13;7.68;;;;;;;9.84;100.00;102320.22;3562012;40;20046;-65
2021/04/18 09:23:56;;;;;;;13.63;7.82;;;;;;;10.05;100.00;102315.31;3561892;40;20030;-64
2021/04/18 09:26:22;;;;;;;12.00;7.63;;;;;;;10.59;100.00;102317.28;3562495;40;20065;-66
2021/04/18 09:29:09;;;;;;;12.25;7.70;;;;;;;11.15;100.00;102319.00;3563399;40;20313;-66
2021/04/18 09:31:52;;;;;;;12.65;7.40;;;;;;;11.28;100.00;102313.63;3559733;40;20055;-65
2021/04/18 09:34:19;;;;;;;13.20;7.50;;;;;;;10.87;100.00;102302.84;3562128;40;20041;-66
2021/04/18 09:36:46;;;;;;;13.60;7.20;;;;;;;11.48;100.00;102310.41;3568199;40;20033;-66
2021/04/18 09:39:12;;;;;;;12.60;7.03;;;;;;;11.44;100.00;102295.44;3571975;40;20065;-65
2021/04/18 09:41:38;;;;;;;12.15;6.47;;;;;;;11.21;100.00;102300.56;3572003;40;20047;-67
2021/04/18 09:44:05;;;;;;;12.45;6.40;;;;;;;11.24;100.00;102309.44;3571625;40;20388;-65
2021/04/18 09:46:41;;;;;;;11.32;7.43;;;;;;;11.51;100.00;102302.16;3572417;40;20369;-66
2021/04/18 09:49:07;;;;;;;12.45;6.97;;;;;;;11.29;100.00;102309.97;3571128;40;20119;-65
2021/04/18 09:51:52;;;;;;;10.95;6.45;;;;;;;11.38;100.00;102312.03;3571945;40;20092;-66
2021/04/18 09:54:30;;;;;;;13.27;7.85;;;;;;;11.43;100.00;102309.88;3571350;40;20057;-66
2021/04/18 09:57:16;;;;;;;14.98;7.40;;;;;;;11.32;100.00;102307.94;3572169;40;20081;-66
2021/04/18 09:59:43;;;;;;;16.48;8.50;;;;;;;11.35;100.00;102312.25;3571654;40;20052;-67
2021/04/18 10:02:14;;;;;;;11.80;7.28;;;;;;;11.46;100.00;102312.38;3570522;40;20080;-66
2021/04/18 10:04:41;;;;;;;14.30;7.60;;;;;;;11.94;100.00;102303.69;3571065;40;20427;-65
2021/04/18 10:07:08;;;;;;;12.10;7.03;;;;;;;12.25;100.00;102301.47;3571118;40;20049;-65
2021/04/18 10:09:49;;;;;;;12.60;7.30;;;;;;;12.15;100.00;102295.88;3571550;40;20687;-65
2021/04/18 10:12:15;;;;;;;11.18;7.05;;;;;;;12.38;100.00;102290.63;3570707;40;20058;-65
2021/04/18 10:14:42;;;;;;;10.65;6.85;;;;;;;12.68;100.00;102292.03;3571648;40;20068;-66
2021/04/18 10:17:08;;;;;;;11.23;7.18;;;;;;;12.65;100.00;102293.13;3570715;40;20056;-66
2021/04/18 10:19:49;;;;;;;13.05;6.97;;;;;;;12.88;100.00;102290.53;3572083;40;20057;-65
2021/04/18 10:22:15;;;;;;;11.85;7.30;;;;;;;12.92;100.00;102290.16;3571173;40;20045;-65
2021/04/18 10:24:44;;;;;;;11.93;7.15;;;;;;;13.05;100.00;102283.84;3572634;40;20083;-66
2021/04/18 10:27:12;;;;;;;12.75;7.57;;;;;;;13.12;100.00;102282.41;3571499;40;20053;-65
2021/04/18 10:29:39;;;;;;;10.48;7.70;;;;;;;13.20;100.00;102287.22;3571361;40;20046;-65
2021/04/18 10:32:06;;;;;;;9.90;7.38;;;;;;;13.54;100.00;102282.75;3570918;40;20048;-66
2021/04/18 10:34:33;;;;;;;12.15;7.45;;;;;;;13.01;100.00;102280.50;3572413;40;20063;-65
2021/04/18 10:37:01;;;;;;;15.68;7.95;;;;;;;13.45;100.00;102275.38;3570619;40;20122;-65
2021/04/18 10:39:27;;;;;;;11.27;7.75;;;;;;;13.49;100.00;102266.03;3572196;40;20057;-65
2021/04/18 10:41:53;;;;;;;13.57;7.53;;;;;;;13.66;100.00;102267.41;3573054;40;20103;-65
2021/04/18 10:44:20;;;;;;;11.35;7.80;;;;;;;13.90;100.00;102269.13;3570605;40;20059;-65
2021/04/18 10:46:49;;;;;;;12.98;7.43;;;;;;;14.41;100.00;102260.44;3572642;40;20040;-65
2021/04/18 10:49:15;;;;;;;15.00;8.02;;;;;;;14.57;100.00;102261.91;3571163;40;20052;-66
2021/04/18 10:51:41;;;;;;;15.68;8.07;;;;;;;14.69;100.00;102271.72;3571848;40;20313;-66
2021/04/18 10:54:08;;;;;;;11.75;7.43;;;;;;;14.36;100.00;102271.66;3569536;40;20128;-66
2021/04/18 10:56:34;;;;;;;14.23;8.05;;;;;;;14.52;100.00;102263.13;3571449;40;20044;-64
2021/04/18 10:59:00;;;;;;;16.13;7.53;;;;;;;14.20;100.00;102260.38;3570525;40;20384;-67
2021/04/18 11:01:26;;;;;;;14.77;7.38;;;;;;;14.50;100.00;102266.94;3570793;40;20126;-68
2021/04/18 11:03:52;;;;;;;11.35;7.63;;;;;;;14.33;100.00;102255.66;3571083;40;20068;-66
2021/04/18 11:06:19;;;;;;;11.73;7.82;;;;;;;14.29;99.36;102251.47;3570475;40;20400;-65
2021/04/18 11:08:45;;;;;;;17.33;7.53;;;;;;;13.82;100.00;102256.22;3571320;40;20050;-67
2021/04/18 11:11:11;;;;;;;14.38;7.55;;;;;;;14.55;99.30;102256.59;3570966;40;20719;-66
2021/04/18 11:19:13;;;;;;;13.27;7.03;;;;;;;14.61;89.78;102241.69;3622414;22;20089;-64
2021/04/18 11:21:39;;;;;;;12.63;7.05;;;;;;;14.13;85.31;102235.66;3599934;39;20078;-65
2021/04/18 11:24:06;;;;;;;8.30;6.07;;;;;;;14.26;84.74;102237.34;3600126;39;20387;-66
2021/04/18 11:26:32;;;;;;;13.57;6.47;;;;;;;14.05;83.98;102237.28;3598921;39;20112;-65